sensor_id;sensor_type;location;lat;lon;timestamp;pressure;altitude;pressure_sealevel;temperature
21336;BMP180;10826;52.536;13.432;2022-07-23T00:00:57;101205.00;;;26.30
21336;BMP180;10826;52.536;13.432;2022-07-23T00:03:23;101190.00;;;26.30
21336;BMP180;10826;52.536;13.432;2022-07-23T00:05:49;101201.00;;;26.30
21336;BMP180;10826;52.536;13.432;2022-07-23T00:08:14;101185.00;;;26.30
21336;BMP180;10826;52.536;13.432;2022-07-23T00:10:41;101193.00;;;26.30
21336;BMP180;10826;52.536;13.432;2022-07-23T00:13:07;101179.00;;;26.20
21336;BMP180;10826;52.536;13.432;2022-07-23T00:15:33;101183.00;;;26.10
21336;BMP180;10826;52.536;13.432;2022-07-23T00:17:59;101170.00;;;26.20
21336;BMP180;10826;52.536;13.432;2022-07-23T00:20:25;101183.00;;;26.10
21336;BMP180;10826;52.536;13.432;2022-07-23T00:22:54;101181.00;;;25.90
21336;BMP180;10826;52.536;13.432;2022-07-23T00:25:22;101188.00;;;26.10
21336;BMP180;10826;52.536;13.432;2022-07-23T00:27:48;101178.00;;;26.00
21336;BMP180;10826;52.536;13.432;2022-07-23T00:30:15;101182.00;;;26.10
21336;BMP180;10826;52.536;13.432;2022-07-23T00:32:56;101152.00;;;26.10
21336;BMP180;10826;52.536;13.432;2022-07-23T00:35:25;101164.00;;;26.00
21336;BMP180;10826;52.536;13.432;2022-07-23T00:37:52;101166.00;;;26.00
21336;BMP180;10826;52.536;13.432;2022-07-23T00:40:18;101168.00;;;26.00
21336;BMP180;10826;52.536;13.432;2022-07-23T00:42:45;101143.00;;;25.90
21336;BMP180;10826;52.536;13.432;2022-07-23T00:45:11;101185.00;;;26.00
21336;BMP180;10826;52.536;13.432;2022-07-23T00:47:37;101185.00;;;25.90
21336;BMP180;10826;52.536;13.432;2022-07-23T00:50:05;101180.00;;;25.90
21336;BMP180;10826;52.536;13.432;2022-07-23T00:52:32;101181.00;;;25.80
21336;BMP180;10826;52.536;13.432;2022-07-23T00:54:59;101170.00;;;25.80
21336;BMP180;10826;52.536;13.432;2022-07-23T00:57:25;101170.00;;;25.80
21336;BMP180;10826;52.536;13.432;2022-07-23T00:59:52;101171.00;;;25.60
21336;BMP180;10826;52.536;13.432;2022-07-23T01:02:17;101165.00;;;25.70
21336;BMP180;10826;52.536;13.432;2022-07-23T01:04:44;101188.00;;;25.70
21336;BMP180;10826;52.536;13.432;2022-07-23T01:07:10;101166.00;;;25.70
21336;BMP180;10826;52.536;13.432;2022-07-23T01:09:37;101176.00;;;25.70
21336;BMP180;10826;52.536;13.432;2022-07-23T01:12:04;101184.00;;;25.70
21336;BMP180;10826;52.536;13.432;2022-07-23T01:14:31;101193.00;;;25.70
21336;BMP180;10826;52.536;13.432;2022-07-23T01:16:57;101161.00;;;25.70
21336;BMP180;10826;52.536;13.432;2022-07-23T01:19:23;101169.00;;;25.60
21336;BMP180;10826;52.536;13.432;2022-07-23T01:21:51;101183.00;;;25.60
21336;BMP180;10826;52.536;13.432;2022-07-23T01:24:18;101148.00;;;25.60
21336;BMP180;10826;52.536;13.432;2022-07-23T01:26:48;101164.00;;;25.50
21336;BMP180;10826;52.536;13.432;2022-07-23T01:29:15;101162.00;;;25.50
21336;BMP180;10826;52.536;13.432;2022-07-23T01:31:42;101139.00;;;25.50
21336;BMP180;10826;52.536;13.432;2022-07-23T01:34:09;101148.00;;;25.40
21336;BMP180;10826;52.536;13.432;2022-07-23T01:36:37;101121.00;;;25.40
21336;BMP180;10826;52.536;13.432;2022-07-23T01:39:04;101148.00;;;25.30
21336;BMP180;10826;52.536;13.432;2022-07-23T01:41:31;101139.00;;;25.30
21336;BMP180;10826;52.536;13.432;2022-07-23T01:43:57;101158.00;;;25.20
21336;BMP180;10826;52.536;13.432;2022-07-23T01:46:24;101146.00;;;25.20
21336;BMP180;10826;52.536;13.432;2022-07-23T01:48:50;101156.00;;;25.10
21336;BMP180;10826;52.536;13.432;2022-07-23T01:51:16;101150.00;;;25.10
21336;BMP180;10826;52.536;13.432;2022-07-23T01:53:42;101151.00;;;25.00
21336;BMP180;10826;52.536;13.432;2022-07-23T01:56:09;101144.00;;;25.00
21336;BMP180;10826;52.536;13.432;2022-07-23T01:58:36;101150.00;;;25.00
21336;BMP180;10826;52.536;13.432;2022-07-23T02:01:02;101143.00;;;25.00
21336;BMP180;10826;52.536;13.432;2022-07-23T02:03:28;101136.00;;;24.90
21336;BMP180;10826;52.536;13.432;2022-07-23T02:05:54;101128.00;;;24.90
21336;BMP180;10826;52.536;13.432;2022-07-23T02:08:20;101138.00;;;24.90
21336;BMP180;10826;52.536;13.432;2022-07-23T02:10:49;101118.00;;;24.90
21336;BMP180;10826;52.536;13.432;2022-07-23T02:13:17;101136.00;;;24.90
21336;BMP180;10826;52.536;13.432;2022-07-23T02:15:46;101133.00;;;24.80
21336;BMP180;10826;52.536;13.432;2022-07-23T02:18:14;101149.00;;;24.80
21336;BMP180;10826;52.536;13.432;2022-07-23T02:20:40;101158.00;;;24.80
21336;BMP180;10826;52.536;13.432;2022-07-23T02:23:07;101148.00;;;24.80
21336;BMP180;10826;52.536;13.432;2022-07-23T02:25:34;101129.00;;;24.70
21336;BMP180;10826;52.536;13.432;2022-07-23T02:28:00;101146.00;;;24.70
21336;BMP180;10826;52.536;13.432;2022-07-23T02:30:26;101144.00;;;24.70
21336;BMP180;10826;52.536;13.432;2022-07-23T02:32:52;101137.00;;;24.70
21336;BMP180;10826;52.536;13.432;2022-07-23T02:35:19;101131.00;;;24.70
21336;BMP180;10826;52.536;13.432;2022-07-23T02:37:45;101151.00;;;24.60
21336;BMP180;10826;52.536;13.432;2022-07-23T02:40:11;101123.00;;;24.60
21336;BMP180;10826;52.536;13.432;2022-07-23T02:42:38;101140.00;;;24.60
21336;BMP180;10826;52.536;13.432;2022-07-23T02:45:05;101154.00;;;24.50
21336;BMP180;10826;52.536;13.432;2022-07-23T02:47:31;101145.00;;;24.50
21336;BMP180;10826;52.536;13.432;2022-07-23T02:49:58;101165.00;;;24.50
21336;BMP180;10826;52.536;13.432;2022-07-23T02:52:23;101159.00;;;24.40
21336;BMP180;10826;52.536;13.432;2022-07-23T02:54:49;101143.00;;;24.40
21336;BMP180;10826;52.536;13.432;2022-07-23T02:57:15;101146.00;;;24.40
21336;BMP180;10826;52.536;13.432;2022-07-23T02:59:42;101141.00;;;24.30
21336;BMP180;10826;52.536;13.432;2022-07-23T03:02:08;101141.00;;;24.30
21336;BMP180;10826;52.536;13.432;2022-07-23T03:04:34;101111.00;;;24.30
21336;BMP180;10826;52.536;13.432;2022-07-23T03:07:00;101144.00;;;24.20
21336;BMP180;10826;52.536;13.432;2022-07-23T03:09:26;101148.00;;;24.20
21336;BMP180;10826;52.536;13.432;2022-07-23T03:11:52;101150.00;;;24.20
21336;BMP180;10826;52.536;13.432;2022-07-23T03:14:18;101142.00;;;24.00
21336;BMP180;10826;52.536;13.432;2022-07-23T03:16:44;101143.00;;;24.10
21336;BMP180;10826;52.536;13.432;2022-07-23T03:19:10;101161.00;;;24.10
21336;BMP180;10826;52.536;13.432;2022-07-23T03:21:36;101162.00;;;24.10
21336;BMP180;10826;52.536;13.432;2022-07-23T03:24:09;101104.00;;;24.10
21336;BMP180;10826;52.536;13.432;2022-07-23T03:26:36;101133.00;;;24.00
21336;BMP180;10826;52.536;13.432;2022-07-23T03:29:03;101155.00;;;24.00
21336;BMP180;10826;52.536;13.432;2022-07-23T03:31:30;101134.00;;;24.00
21336;BMP180;10826;52.536;13.432;2022-07-23T03:33:57;101151.00;;;23.90
21336;BMP180;10826;52.536;13.432;2022-07-23T03:36:23;101128.00;;;23.90
21336;BMP180;10826;52.536;13.432;2022-07-23T03:38:49;101176.00;;;23.90
21336;BMP180;10826;52.536;13.432;2022-07-23T03:41:17;101133.00;;;23.90
21336;BMP180;10826;52.536;13.432;2022-07-23T03:43:43;101175.00;;;23.80
21336;BMP180;10826;52.536;13.432;2022-07-23T03:46:09;101142.00;;;23.80
21336;BMP180;10826;52.536;13.432;2022-07-23T03:48:35;101180.00;;;23.70
21336;BMP180;10826;52.536;13.432;2022-07-23T03:51:02;101142.00;;;23.70
21336;BMP180;10826;52.536;13.432;2022-07-23T03:53:28;101175.00;;;23.70
21336;BMP180;10826;52.536;13.432;2022-07-23T03:55:54;101198.00;;;23.60
21336;BMP180;10826;52.536;13.432;2022-07-23T03:58:20;101185.00;;;23.60
21336;BMP180;10826;52.536;13.432;2022-07-23T04:00:46;101183.00;;;23.60
21336;BMP180;10826;52.536;13.432;2022-07-23T04:03:12;101176.00;;;23.60
21336;BMP180;10826;52.536;13.432;2022-07-23T04:05:39;101152.00;;;23.60
21336;BMP180;10826;52.536;13.432;2022-07-23T04:08:05;101192.00;;;23.70
21336;BMP180;10826;52.536;13.432;2022-07-23T04:10:31;101168.00;;;23.70
21336;BMP180;10826;52.536;13.432;2022-07-23T04:12:56;101156.00;;;23.70
21336;BMP180;10826;52.536;13.432;2022-07-23T04:15:22;101164.00;;;23.70
21336;BMP180;10826;52.536;13.432;2022-07-23T04:17:48;101135.00;;;23.70
21336;BMP180;10826;52.536;13.432;2022-07-23T04:20:14;101126.00;;;23.70
21336;BMP180;10826;52.536;13.432;2022-07-23T04:22:40;101068.00;;;23.70
21336;BMP180;10826;52.536;13.432;2022-07-23T04:25:06;101173.00;;;23.70
21336;BMP180;10826;52.536;13.432;2022-07-23T04:27:32;101188.00;;;23.70
21336;BMP180;10826;52.536;13.432;2022-07-23T04:29:59;101167.00;;;23.70
21336;BMP180;10826;52.536;13.432;2022-07-23T04:32:25;101131.00;;;23.70
21336;BMP180;10826;52.536;13.432;2022-07-23T04:34:51;101158.00;;;23.60
21336;BMP180;10826;52.536;13.432;2022-07-23T04:37:17;101116.00;;;23.60
21336;BMP180;10826;52.536;13.432;2022-07-23T04:39:43;101157.00;;;23.60
21336;BMP180;10826;52.536;13.432;2022-07-23T04:42:10;101179.00;;;23.50
21336;BMP180;10826;52.536;13.432;2022-07-23T04:44:36;101187.00;;;23.60
21336;BMP180;10826;52.536;13.432;2022-07-23T04:47:02;101212.00;;;23.60
21336;BMP180;10826;52.536;13.432;2022-07-23T04:49:28;101204.00;;;23.50
21336;BMP180;10826;52.536;13.432;2022-07-23T04:51:54;101203.00;;;23.50
21336;BMP180;10826;52.536;13.432;2022-07-23T04:54:20;101204.00;;;23.50
21336;BMP180;10826;52.536;13.432;2022-07-23T04:56:46;101191.00;;;23.40
21336;BMP180;10826;52.536;13.432;2022-07-23T04:59:12;101212.00;;;23.40
21336;BMP180;10826;52.536;13.432;2022-07-23T05:01:38;101230.00;;;23.40
21336;BMP180;10826;52.536;13.432;2022-07-23T05:04:04;101198.00;;;23.30
21336;BMP180;10826;52.536;13.432;2022-07-23T05:06:30;101203.00;;;23.30
21336;BMP180;10826;52.536;13.432;2022-07-23T05:08:55;101186.00;;;23.30
21336;BMP180;10826;52.536;13.432;2022-07-23T05:11:21;101179.00;;;23.30
21336;BMP180;10826;52.536;13.432;2022-07-23T05:13:47;101184.00;;;23.20
21336;BMP180;10826;52.536;13.432;2022-07-23T05:16:13;101188.00;;;23.10
21336;BMP180;10826;52.536;13.432;2022-07-23T05:18:39;101187.00;;;23.00
21336;BMP180;10826;52.536;13.432;2022-07-23T05:21:05;101145.00;;;23.00
21336;BMP180;10826;52.536;13.432;2022-07-23T05:23:31;101184.00;;;22.80
21336;BMP180;10826;52.536;13.432;2022-07-23T05:25:57;101168.00;;;22.80
21336;BMP180;10826;52.536;13.432;2022-07-23T05:28:23;101167.00;;;22.70
21336;BMP180;10826;52.536;13.432;2022-07-23T05:30:49;101182.00;;;22.60
21336;BMP180;10826;52.536;13.432;2022-07-23T05:33:15;101182.00;;;22.40
21336;BMP180;10826;52.536;13.432;2022-07-23T05:35:41;101179.00;;;22.30
21336;BMP180;10826;52.536;13.432;2022-07-23T05:38:06;101164.00;;;22.20
21336;BMP180;10826;52.536;13.432;2022-07-23T05:40:32;101179.00;;;22.00
21336;BMP180;10826;52.536;13.432;2022-07-23T05:42:58;101179.00;;;22.10
21336;BMP180;10826;52.536;13.432;2022-07-23T05:45:24;101181.00;;;22.00
21336;BMP180;10826;52.536;13.432;2022-07-23T05:47:50;101174.00;;;22.00
21336;BMP180;10826;52.536;13.432;2022-07-23T05:50:17;101181.00;;;22.00
21336;BMP180;10826;52.536;13.432;2022-07-23T05:52:44;101169.00;;;22.00
21336;BMP180;10826;52.536;13.432;2022-07-23T05:55:11;101198.00;;;22.00
21336;BMP180;10826;52.536;13.432;2022-07-23T05:57:38;101210.00;;;22.00
21336;BMP180;10826;52.536;13.432;2022-07-23T06:00:06;101228.00;;;22.00
21336;BMP180;10826;52.536;13.432;2022-07-23T06:02:32;101210.00;;;22.10
21336;BMP180;10826;52.536;13.432;2022-07-23T06:04:58;101221.00;;;22.10
21336;BMP180;10826;52.536;13.432;2022-07-23T06:07:24;101223.00;;;22.20
21336;BMP180;10826;52.536;13.432;2022-07-23T06:09:50;101209.00;;;22.20
21336;BMP180;10826;52.536;13.432;2022-07-23T06:12:18;101207.00;;;22.30
21336;BMP180;10826;52.536;13.432;2022-07-23T06:14:44;101146.00;;;22.30
21336;BMP180;10826;52.536;13.432;2022-07-23T06:17:10;101184.00;;;22.30
21336;BMP180;10826;52.536;13.432;2022-07-23T06:19:35;101165.00;;;22.40
21336;BMP180;10826;52.536;13.432;2022-07-23T06:22:01;101176.00;;;22.40
21336;BMP180;10826;52.536;13.432;2022-07-23T06:24:28;101183.00;;;22.40
21336;BMP180;10826;52.536;13.432;2022-07-23T06:26:53;101184.00;;;22.50
21336;BMP180;10826;52.536;13.432;2022-07-23T06:29:19;101162.00;;;22.40
21336;BMP180;10826;52.536;13.432;2022-07-23T06:31:46;101164.00;;;22.50
21336;BMP180;10826;52.536;13.432;2022-07-23T06:34:12;101206.00;;;22.50
21336;BMP180;10826;52.536;13.432;2022-07-23T06:36:38;101199.00;;;22.50
21336;BMP180;10826;52.536;13.432;2022-07-23T06:39:04;101186.00;;;22.50
21336;BMP180;10826;52.536;13.432;2022-07-23T06:41:30;101172.00;;;22.50
21336;BMP180;10826;52.536;13.432;2022-07-23T06:43:56;101143.00;;;22.50
21336;BMP180;10826;52.536;13.432;2022-07-23T06:46:21;101148.00;;;22.60
21336;BMP180;10826;52.536;13.432;2022-07-23T06:48:48;101124.00;;;22.60
21336;BMP180;10826;52.536;13.432;2022-07-23T06:51:14;101140.00;;;22.60
21336;BMP180;10826;52.536;13.432;2022-07-23T06:53:40;101153.00;;;22.60
21336;BMP180;10826;52.536;13.432;2022-07-23T06:56:06;101125.00;;;22.60
21336;BMP180;10826;52.536;13.432;2022-07-23T06:58:32;101152.00;;;22.60
21336;BMP180;10826;52.536;13.432;2022-07-23T07:00:58;101164.00;;;22.50
21336;BMP180;10826;52.536;13.432;2022-07-23T07:03:24;101151.00;;;22.50
21336;BMP180;10826;52.536;13.432;2022-07-23T07:05:50;101142.00;;;22.50
21336;BMP180;10826;52.536;13.432;2022-07-23T07:08:17;101152.00;;;22.50
21336;BMP180;10826;52.536;13.432;2022-07-23T07:10:43;101136.00;;;22.50
21336;BMP180;10826;52.536;13.432;2022-07-23T07:13:09;101141.00;;;22.50
21336;BMP180;10826;52.536;13.432;2022-07-23T07:15:35;101172.00;;;22.50
21336;BMP180;10826;52.536;13.432;2022-07-23T07:18:01;101192.00;;;22.60
21336;BMP180;10826;52.536;13.432;2022-07-23T07:20:27;101198.00;;;22.60
21336;BMP180;10826;52.536;13.432;2022-07-23T07:22:53;101200.00;;;22.70
21336;BMP180;10826;52.536;13.432;2022-07-23T07:25:19;101186.00;;;22.80
21336;BMP180;10826;52.536;13.432;2022-07-23T07:27:45;101197.00;;;22.90
21336;BMP180;10826;52.536;13.432;2022-07-23T07:30:12;101217.00;;;23.00
21336;BMP180;10826;52.536;13.432;2022-07-23T07:32:38;101194.00;;;23.10
21336;BMP180;10826;52.536;13.432;2022-07-23T07:35:05;101211.00;;;23.20
21336;BMP180;10826;52.536;13.432;2022-07-23T07:37:32;101148.00;;;23.30
21336;BMP180;10826;52.536;13.432;2022-07-23T07:39:59;101203.00;;;23.40
21336;BMP180;10826;52.536;13.432;2022-07-23T07:42:26;101200.00;;;23.50
21336;BMP180;10826;52.536;13.432;2022-07-23T07:44:52;101206.00;;;23.60
21336;BMP180;10826;52.536;13.432;2022-07-23T07:47:18;101121.00;;;23.70
21336;BMP180;10826;52.536;13.432;2022-07-23T07:49:49;101178.00;;;23.80
21336;BMP180;10826;52.536;13.432;2022-07-23T07:52:16;101179.00;;;23.90
21336;BMP180;10826;52.536;13.432;2022-07-23T07:54:42;101174.00;;;24.00
21336;BMP180;10826;52.536;13.432;2022-07-23T07:57:08;101167.00;;;24.10
21336;BMP180;10826;52.536;13.432;2022-07-23T07:59:38;101154.00;;;24.10
21336;BMP180;10826;52.536;13.432;2022-07-23T08:02:08;101053.00;;;24.20
21336;BMP180;10826;52.536;13.432;2022-07-23T08:04:38;101173.00;;;24.30
21336;BMP180;10826;52.536;13.432;2022-07-23T08:07:04;101145.00;;;24.30
21336;BMP180;10826;52.536;13.432;2022-07-23T08:09:30;101196.00;;;24.30
21336;BMP180;10826;52.536;13.432;2022-07-23T08:11:57;101180.00;;;24.30
21336;BMP180;10826;52.536;13.432;2022-07-23T08:14:23;101177.00;;;24.40
21336;BMP180;10826;52.536;13.432;2022-07-23T08:16:49;101170.00;;;24.40
21336;BMP180;10826;52.536;13.432;2022-07-23T08:19:15;101170.00;;;24.40
21336;BMP180;10826;52.536;13.432;2022-07-23T08:21:42;101166.00;;;24.40
21336;BMP180;10826;52.536;13.432;2022-07-23T08:24:12;101152.00;;;24.50
21336;BMP180;10826;52.536;13.432;2022-07-23T08:26:38;101156.00;;;24.50
21336;BMP180;10826;52.536;13.432;2022-07-23T08:29:05;101166.00;;;24.50
21336;BMP180;10826;52.536;13.432;2022-07-23T08:31:34;101161.00;;;24.60
21336;BMP180;10826;52.536;13.432;2022-07-23T08:34:01;101176.00;;;24.60
21336;BMP180;10826;52.536;13.432;2022-07-23T08:36:29;101146.00;;;24.60
21336;BMP180;10826;52.536;13.432;2022-07-23T08:38:59;101164.00;;;24.60
21336;BMP180;10826;52.536;13.432;2022-07-23T08:41:25;101140.00;;;24.60
21336;BMP180;10826;52.536;13.432;2022-07-23T08:43:51;101164.00;;;24.60
21336;BMP180;10826;52.536;13.432;2022-07-23T08:46:19;101126.00;;;24.70
21336;BMP180;10826;52.536;13.432;2022-07-23T08:48:49;101184.00;;;24.70
21336;BMP180;10826;52.536;13.432;2022-07-23T08:51:16;101191.00;;;24.70
21336;BMP180;10826;52.536;13.432;2022-07-23T08:53:43;101182.00;;;24.40
21336;BMP180;10826;52.536;13.432;2022-07-23T08:56:10;101172.00;;;24.50
21336;BMP180;10826;52.536;13.432;2022-07-23T08:58:36;101177.00;;;24.70
21336;BMP180;10826;52.536;13.432;2022-07-23T09:01:03;101176.00;;;24.80
21336;BMP180;10826;52.536;13.432;2022-07-23T09:03:32;101175.00;;;24.80
21336;BMP180;10826;52.536;13.432;2022-07-23T09:06:00;101152.00;;;24.80
21336;BMP180;10826;52.536;13.432;2022-07-23T09:11:10;101185.00;;;24.90
21336;BMP180;10826;52.536;13.432;2022-07-23T09:14:03;101181.00;;;24.90
21336;BMP180;10826;52.536;13.432;2022-07-23T09:16:31;101181.00;;;24.90
21336;BMP180;10826;52.536;13.432;2022-07-23T09:19:01;101171.00;;;24.90
21336;BMP180;10826;52.536;13.432;2022-07-23T09:21:38;101194.00;;;25.00
21336;BMP180;10826;52.536;13.432;2022-07-23T09:24:12;101178.00;;;25.00
21336;BMP180;10826;52.536;13.432;2022-07-23T09:26:47;101183.00;;;25.10
21336;BMP180;10826;52.536;13.432;2022-07-23T09:29:25;101215.00;;;25.10
21336;BMP180;10826;52.536;13.432;2022-07-23T09:31:57;101205.00;;;25.20
21336;BMP180;10826;52.536;13.432;2022-07-23T09:34:25;101209.00;;;25.20
21336;BMP180;10826;52.536;13.432;2022-07-23T09:37:13;101121.00;;;25.20
21336;BMP180;10826;52.536;13.432;2022-07-23T09:39:40;101205.00;;;25.20
21336;BMP180;10826;52.536;13.432;2022-07-23T09:42:19;101205.00;;;25.20
21336;BMP180;10826;52.536;13.432;2022-07-23T09:44:48;101200.00;;;25.30
21336;BMP180;10826;52.536;13.432;2022-07-23T09:47:16;101158.00;;;25.30
21336;BMP180;10826;52.536;13.432;2022-07-23T09:50:07;101192.00;;;25.40
21336;BMP180;10826;52.536;13.432;2022-07-23T09:52:49;101176.00;;;25.40
21336;BMP180;10826;52.536;13.432;2022-07-23T09:55:18;101196.00;;;25.40
21336;BMP180;10826;52.536;13.432;2022-07-23T09:57:46;101201.00;;;25.40
21336;BMP180;10826;52.536;13.432;2022-07-23T10:00:15;101174.00;;;25.50
21336;BMP180;10826;52.536;13.432;2022-07-23T10:02:46;101210.00;;;25.70
21336;BMP180;10826;52.536;13.432;2022-07-23T10:05:14;101208.00;;;25.70
21336;BMP180;10826;52.536;13.432;2022-07-23T10:07:42;101213.00;;;25.80
21336;BMP180;10826;52.536;13.432;2022-07-23T10:10:10;101226.00;;;25.90
21336;BMP180;10826;52.536;13.432;2022-07-23T10:12:37;101226.00;;;26.00
21336;BMP180;10826;52.536;13.432;2022-07-23T10:15:22;101214.00;;;26.10
21336;BMP180;10826;52.536;13.432;2022-07-23T10:17:49;101219.00;;;26.20
21336;BMP180;10826;52.536;13.432;2022-07-23T10:20:15;101183.00;;;26.30
21336;BMP180;10826;52.536;13.432;2022-07-23T10:23:12;101217.00;;;26.50
21336;BMP180;10826;52.536;13.432;2022-07-23T10:25:55;101224.00;;;26.50
21336;BMP180;10826;52.536;13.432;2022-07-23T10:28:45;101228.00;;;26.60
21336;BMP180;10826;52.536;13.432;2022-07-23T10:39:42;101207.00;;;26.90
21336;BMP180;10826;52.536;13.432;2022-07-23T10:42:15;101238.00;;;26.90
21336;BMP180;10826;52.536;13.432;2022-07-23T10:44:47;101221.00;;;26.90
21336;BMP180;10826;52.536;13.432;2022-07-23T10:47:27;101235.00;;;26.90
21336;BMP180;10826;52.536;13.432;2022-07-23T10:50:25;101239.00;;;26.90
21336;BMP180;10826;52.536;13.432;2022-07-23T10:53:18;101239.00;;;26.90
21336;BMP180;10826;52.536;13.432;2022-07-23T10:55:47;101235.00;;;27.00
21336;BMP180;10826;52.536;13.432;2022-07-23T10:58:20;101225.00;;;27.00
21336;BMP180;10826;52.536;13.432;2022-07-23T11:00:47;101241.00;;;27.00
21336;BMP180;10826;52.536;13.432;2022-07-23T11:03:35;101233.00;;;27.20
21336;BMP180;10826;52.536;13.432;2022-07-23T11:06:05;101247.00;;;27.20
21336;BMP180;10826;52.536;13.432;2022-07-23T11:08:32;101232.00;;;27.30
21336;BMP180;10826;52.536;13.432;2022-07-23T11:13:38;101209.00;;;27.40
21336;BMP180;10826;52.536;13.432;2022-07-23T11:16:10;101230.00;;;27.50
21336;BMP180;10826;52.536;13.432;2022-07-23T11:26:45;101227.00;;;27.80
21336;BMP180;10826;52.536;13.432;2022-07-23T11:32:24;101210.00;;;28.00
21336;BMP180;10826;52.536;13.432;2022-07-23T11:34:52;101220.00;;;28.10
21336;BMP180;10826;52.536;13.432;2022-07-23T11:37:45;101193.00;;;28.10
21336;BMP180;10826;52.536;13.432;2022-07-23T11:40:16;101207.00;;;28.10
21336;BMP180;10826;52.536;13.432;2022-07-23T11:43:00;101201.00;;;28.20
21336;BMP180;10826;52.536;13.432;2022-07-23T11:45:39;101220.00;;;28.10
21336;BMP180;10826;52.536;13.432;2022-07-23T11:48:28;101211.00;;;27.90
21336;BMP180;10826;52.536;13.432;2022-07-23T11:50:56;101212.00;;;27.80
21336;BMP180;10826;52.536;13.432;2022-07-23T11:53:32;101196.00;;;27.80
21336;BMP180;10826;52.536;13.432;2022-07-23T11:56:10;101208.00;;;27.80
21336;BMP180;10826;52.536;13.432;2022-07-23T11:58:38;101214.00;;;27.70
21336;BMP180;10826;52.536;13.432;2022-07-23T12:01:05;101191.00;;;27.80
21336;BMP180;10826;52.536;13.432;2022-07-23T12:03:31;101209.00;;;27.80
21336;BMP180;10826;52.536;13.432;2022-07-23T12:05:59;101193.00;;;27.80
21336;BMP180;10826;52.536;13.432;2022-07-23T12:08:26;101191.00;;;27.90
21336;BMP180;10826;52.536;13.432;2022-07-23T12:10:52;101211.00;;;28.00
21336;BMP180;10826;52.536;13.432;2022-07-23T12:13:21;101202.00;;;28.10
21336;BMP180;10826;52.536;13.432;2022-07-23T12:15:52;101217.00;;;28.20
21336;BMP180;10826;52.536;13.432;2022-07-23T12:18:24;101215.00;;;28.30
21336;BMP180;10826;52.536;13.432;2022-07-23T12:20:57;101182.00;;;28.30
21336;BMP180;10826;52.536;13.432;2022-07-23T12:23:26;101171.00;;;28.30
21336;BMP180;10826;52.536;13.432;2022-07-23T12:25:53;101216.00;;;28.30
21336;BMP180;10826;52.536;13.432;2022-07-23T12:28:27;101210.00;;;28.40
21336;BMP180;10826;52.536;13.432;2022-07-23T12:30:57;101190.00;;;28.20
21336;BMP180;10826;52.536;13.432;2022-07-23T12:33:38;101192.00;;;28.40
21336;BMP180;10826;52.536;13.432;2022-07-23T12:36:07;101205.00;;;28.40
21336;BMP180;10826;52.536;13.432;2022-07-23T12:38:46;101197.00;;;28.50
21336;BMP180;10826;52.536;13.432;2022-07-23T12:41:13;101205.00;;;28.50
21336;BMP180;10826;52.536;13.432;2022-07-23T12:43:42;101196.00;;;28.60
21336;BMP180;10826;52.536;13.432;2022-07-23T12:46:20;101199.00;;;28.60
21336;BMP180;10826;52.536;13.432;2022-07-23T12:51:21;101182.00;;;28.70
21336;BMP180;10826;52.536;13.432;2022-07-23T12:53:54;101196.00;;;28.60
21336;BMP180;10826;52.536;13.432;2022-07-23T12:56:30;101206.00;;;28.70
21336;BMP180;10826;52.536;13.432;2022-07-23T12:59:01;101210.00;;;28.70
21336;BMP180;10826;52.536;13.432;2022-07-23T13:01:38;101208.00;;;28.70
21336;BMP180;10826;52.536;13.432;2022-07-23T13:06:46;101202.00;;;28.80
21336;BMP180;10826;52.536;13.432;2022-07-23T13:09:16;101199.00;;;28.80
21336;BMP180;10826;52.536;13.432;2022-07-23T13:11:44;101211.00;;;28.80
21336;BMP180;10826;52.536;13.432;2022-07-23T13:14:12;101208.00;;;28.90
21336;BMP180;10826;52.536;13.432;2022-07-23T13:16:39;101206.00;;;28.80
21336;BMP180;10826;52.536;13.432;2022-07-23T13:19:06;101209.00;;;28.70
21336;BMP180;10826;52.536;13.432;2022-07-23T13:21:33;101188.00;;;28.80
21336;BMP180;10826;52.536;13.432;2022-07-23T13:23:59;101189.00;;;28.80
21336;BMP180;10826;52.536;13.432;2022-07-23T13:26:27;101180.00;;;28.90
21336;BMP180;10826;52.536;13.432;2022-07-23T13:28:55;101195.00;;;28.90
21336;BMP180;10826;52.536;13.432;2022-07-23T13:31:21;101185.00;;;28.90
21336;BMP180;10826;52.536;13.432;2022-07-23T13:33:47;101201.00;;;28.90
21336;BMP180;10826;52.536;13.432;2022-07-23T13:36:14;101178.00;;;28.90
21336;BMP180;10826;52.536;13.432;2022-07-23T13:38:40;101172.00;;;28.90
21336;BMP180;10826;52.536;13.432;2022-07-23T13:41:06;101183.00;;;28.90
21336;BMP180;10826;52.536;13.432;2022-07-23T13:43:32;101193.00;;;29.00
21336;BMP180;10826;52.536;13.432;2022-07-23T13:45:59;101158.00;;;29.00
21336;BMP180;10826;52.536;13.432;2022-07-23T13:48:26;101195.00;;;29.00
21336;BMP180;10826;52.536;13.432;2022-07-23T13:50:51;101162.00;;;29.00
21336;BMP180;10826;52.536;13.432;2022-07-23T13:53:23;101134.00;;;29.10
21336;BMP180;10826;52.536;13.432;2022-07-23T13:55:52;101198.00;;;29.10
21336;BMP180;10826;52.536;13.432;2022-07-23T13:58:20;101205.00;;;29.10
21336;BMP180;10826;52.536;13.432;2022-07-23T14:00:49;101200.00;;;29.20
21336;BMP180;10826;52.536;13.432;2022-07-23T14:03:17;101175.00;;;29.10
21336;BMP180;10826;52.536;13.432;2022-07-23T14:05:43;101195.00;;;29.10
21336;BMP180;10826;52.536;13.432;2022-07-23T14:08:10;101195.00;;;29.10
21336;BMP180;10826;52.536;13.432;2022-07-23T14:10:36;101184.00;;;29.10
21336;BMP180;10826;52.536;13.432;2022-07-23T14:13:03;101178.00;;;29.00
21336;BMP180;10826;52.536;13.432;2022-07-23T14:15:31;101170.00;;;29.00
21336;BMP180;10826;52.536;13.432;2022-07-23T14:17:57;101163.00;;;28.90
21336;BMP180;10826;52.536;13.432;2022-07-23T14:20:23;101178.00;;;28.90